Time;durP1;ratioP1;P1;durP2;ratioP2;P2;SDS_P1;SDS_P2;PMS_P1;PMS_P2;Temp;Humidity;BMP_temperature;BMP_pressure;BME280_temperature;BME280_humidity;BME280_pressure;Samples;Min_cycle;Max_cycle;Signal;HPM_P1;HPM_P2
2022/06/03 00:00:16;;;;;;;11.98;1.98;;;;;;;20.38;55.59;100040.13;5074848;28;20459;-76
2022/06/03 00:02:55;;;;;;;7.72;1.52;;;;;;;20.47;55.83;100069.97;5089719;28;20091;-75
2022/06/03 00:05:49;;;;;;;5.88;2.30;;;;;;;20.31;55.50;100035.06;5094777;28;20111;-74
2022/06/03 00:08:46;;;;;;;5.80;1.30;;;;;;;20.47;55.79;100063.47;5081010;28;20088;-77
2022/06/03 00:11:38;;;;;;;6.32;1.88;;;;;;;20.54;55.79;100058.03;5089254;28;20091;-77
2022/06/03 00:14:26;;;;;;;9.98;1.40;;;;;;;20.58;55.73;100056.13;5074429;28;20127;-76
2022/06/03 00:17:21;;;;;;;7.43;1.60;;;;;;;20.59;55.64;100055.78;5075578;28;21048;-77
2022/06/03 00:20:00;;;;;;;5.28;1.52;;;;;;;20.63;55.38;100057.91;5072224;28;20090;-77
2022/06/03 00:22:39;;;;;;;2.57;1.40;;;;;;;20.59;55.51;100058.63;5077672;28;20048;-76
2022/06/03 00:25:24;;;;;;;9.25;1.60;;;;;;;20.61;55.54;100051.75;5077917;28;20324;-78
2022/06/03 00:28:22;;;;;;;14.80;2.42;;;;;;;20.55;55.47;100037.84;5077720;28;20080;-76
2022/06/03 00:30:51;;;;;;;5.35;1.60;;;;;;;20.66;55.50;100045.84;5088227;28;20083;-75
2022/06/03 00:33:50;;;;;;;2.45;1.10;;;;;;;20.58;55.38;100034.28;5094669;28;20102;-76
2022/06/03 00:36:28;;;;;;;8.27;2.30;;;;;;;20.65;55.45;100047.00;5096535;28;20078;-75
2022/06/03 00:39:34;;;;;;;5.88;1.40;;;;;;;20.57;55.51;100037.47;5088155;28;20072;-74
2022/06/03 00:42:21;;;;;;;7.22;2.10;;;;;;;20.56;55.62;100045.16;5078862;28;20091;-75
2022/06/03 00:45:12;;;;;;;13.98;2.13;;;;;;;20.47;55.37;100018.91;5079794;28;20127;-75
2022/06/03 00:47:55;;;;;;;6.10;1.45;;;;;;;20.52;55.39;100027.22;5076688;28;20071;-77
2022/06/03 00:50:34;;;;;;;10.68;1.23;;;;;;;20.41;55.42;100017.53;5093538;28;20087;-76
2022/06/03 00:53:29;;;;;;;6.22;1.60;;;;;;;20.56;55.60;100033.00;5082881;28;20177;-75
2022/06/03 00:56:23;;;;;;;14.00;2.17;;;;;;;20.52;55.61;100015.88;5088006;28;20075;-75
2022/06/03 00:59:13;;;;;;;5.80;1.35;;;;;;;20.83;55.22;100034.16;5080230;28;20084;-75
2022/06/03 01:01:48;;;;;;;6.00;1.55;;;;;;;20.72;55.31;100041.56;5080737;28;20473;-74
2022/06/03 01:04:48;;;;;;;5.97;2.42;;;;;;;20.50;55.55;100021.06;5082740;28;20567;-74
2022/06/03 01:07:15;;;;;;;5.07;1.45;;;;;;;20.50;55.82;100038.09;5086093;28;20101;-78
2022/06/03 01:09:53;;;;;;;7.43;1.88;;;;;;;20.52;56.30;100037.75;5084106;28;20139;-80
2022/06/03 01:12:38;;;;;;;5.38;2.13;;;;;;;20.72;56.44;100025.34;5092678;28;20076;-79
2022/06/03 01:15:23;;;;;;;7.70;2.13;;;;;;;20.64;56.38;100017.00;5089369;28;20075;-76
2022/06/03 01:18:13;;;;;;;4.93;1.40;;;;;;;20.52;56.63;100026.41;5087488;28;20087;-77
2022/06/03 01:21:01;;;;;;;8.23;1.80;;;;;;;20.46;56.46;100017.28;5090177;28;20490;-77
2022/06/03 01:23:59;;;;;;;7.18;1.77;;;;;;;20.33;56.91;100019.31;5090737;28;20105;-78
2022/06/03 01:26:44;;;;;;;8.27;1.77;;;;;;;20.19;57.10;100006.72;5082614;28;20455;-79
2022/06/03 01:29:17;;;;;;;2.78;0.90;;;;;;;20.09;57.17;100020.22;5088069;28;20086;-75
2022/06/03 01:32:14;;;;;;;6.85;1.63;;;;;;;19.93;57.58;100013.66;5079157;28;20127;-76
2022/06/03 01:35:00;;;;;;;5.88;1.45;;;;;;;19.92;57.72;100006.31;5086042;28;20143;-73
2022/06/03 01:37:34;;;;;;;4.90;3.80;;;;;;;19.75;57.78;99993.22;5081305;28;20448;-74
2022/06/03 01:40:29;;;;;;;5.15;1.30;;;;;;;19.82;58.05;100012.47;5084699;28;20525;-74
2022/06/03 01:42:59;;;;;;;3.28;1.17;;;;;;;19.91;57.87;100016.00;5088911;28;20131;-74
2022/06/03 01:45:25;;;;;;;;;;;;;;;19.83;58.24;100011.31;5084481;28;20067;-74
2022/06/03 01:48:28;;;;;;;6.38;1.42;;;;;;;19.73;58.38;100009.78;5089402;28;20328;-74
2022/06/03 01:51:01;;;;;;;7.93;1.63;;;;;;;19.68;58.34;100017.69;5081862;28;20068;-73
2022/06/03 01:53:34;;;;;;;10.20;2.05;;;;;;;19.70;58.51;100016.16;5085147;28;20075;-77
2022/06/03 01:56:33;;;;;;;11.10;1.83;;;;;;;19.77;58.50;100012.72;5082047;28;20067;-75
2022/06/03 01:59:04;;;;;;;13.82;2.75;;;;;;;19.81;58.27;100013.66;5073574;28;20080;-74
2022/06/03 02:02:07;;;;;;;10.15;2.75;;;;;;;19.75;58.24;99989.56;5107160;28;20087;-75
2022/06/03 02:04:54;;;;;;;7.45;1.77;;;;;;;19.85;58.09;100015.41;5015564;28;20062;-77
2022/06/03 02:07:27;;;;;;;3.45;1.30;;;;;;;19.80;58.17;100012.00;5089189;28;20071;-77
2022/06/03 02:10:23;;;;;;;6.25;1.42;;;;;;;19.72;58.10;99995.94;5087011;28;20132;-76
2022/06/03 02:13:18;;;;;;;3.95;1.65;;;;;;;19.72;58.19;100007.28;5075482;28;20485;-76
2022/06/03 02:16:03;;;;;;;6.63;1.98;;;;;;;19.81;58.06;100008.00;5087562;28;20134;-74
2022/06/03 02:18:39;;;;;;;4.43;1.90;;;;;;;19.80;58.31;100012.00;5092551;28;20068;-74
2022/06/03 02:21:27;;;;;;;6.07;1.48;;;;;;;19.72;58.14;100013.78;5085631;28;20079;-75
2022/06/03 02:24:09;;;;;;;5.07;1.30;;;;;;;19.70;58.09;100009.66;5081702;28;20048;-75
2022/06/03 02:27:00;;;;;;;8.40;1.52;;;;;;;19.59;58.45;100004.44;5087551;28;20075;-76
2022/06/03 02:33:04;;;;;;;6.25;1.52;;;;;;;19.60;58.61;99993.94;5074107;28;20511;-76
2022/06/03 02:35:40;;;;;;;5.63;2.00;;;;;;;19.64;58.56;99990.06;5077406;28;20138;-76
2022/06/03 02:38:51;;;;;;;10.10;3.08;;;;;;;19.60;58.68;99988.28;5090972;28;20123;-80
2022/06/03 02:41:27;;;;;;;8.70;1.90;;;;;;;19.63;58.56;99993.25;5076179;28;20234;-79
2022/06/03 02:44:21;;;;;;;2.78;1.58;;;;;;;19.57;58.55;99986.97;5084449;28;20486;-78
2022/06/03 02:47:18;;;;;;;8.07;2.40;;;;;;;19.54;58.44;99987.69;5087110;28;20499;-78
2022/06/03 02:50:25;;;;;;;8.45;2.13;;;;;;;19.50;58.60;99978.25;5080145;28;20119;-78
2022/06/03 02:53:13;;;;;;;6.05;1.38;;;;;;;19.52;58.50;99978.72;5083070;28;20128;-78
2022/06/03 02:55:40;;;;;;;9.65;2.05;;;;;;;19.46;58.66;99982.97;5096624;28;20131;-77
2022/06/03 02:58:28;;;;;;;6.97;1.88;;;;;;;19.51;58.73;99982.72;5088136;28;20087;-78
2022/06/03 03:01:16;;;;;;;4.95;1.60;;;;;;;19.48;58.86;99977.75;5089919;28;20076;-77
2022/06/03 03:04:08;;;;;;;6.68;1.75;;;;;;;19.45;58.72;99980.47;5074969;28;20048;-77
2022/06/03 03:06:53;;;;;;;7.13;2.47;;;;;;;19.45;58.76;99989.78;5087934;28;20081;-77
2022/06/03 03:09:32;;;;;;;5.32;1.70;;;;;;;19.44;59.00;99982.50;5086965;28;20079;-77
2022/06/03 03:12:14;;;;;;;7.30;1.20;;;;;;;19.39;58.96;99974.25;5076242;28;20142;-77
2022/06/03 03:14:46;;;;;;;11.90;2.17;;;;;;;19.41;59.05;99980.38;5087741;28;20554;-77
2022/06/03 03:17:38;;;;;;;6.68;1.33;;;;;;;19.46;58.96;99979.31;5082814;28;20139;-77
2022/06/03 03:20:31;;;;;;;8.15;1.98;;;;;;;19.42;59.22;99987.69;5084836;28;20076;-77
2022/06/03 03:23:16;;;;;;;3.75;1.52;;;;;;;19.37;59.17;99977.41;5088007;28;20075;-76
2022/06/03 03:25:58;;;;;;;4.32;1.40;;;;;;;19.29;59.17;99971.88;5090343;28;20067;-77
2022/06/03 03:28:56;;;;;;;7.10;1.40;;;;;;;19.28;59.04;99973.91;5085189;28;20045;-77
2022/06/03 03:31:35;;;;;;;5.60;1.70;;;;;;;19.31;59.09;99967.50;5080031;28;20478;-77
2022/06/03 03:34:23;;;;;;;4.78;1.60;;;;;;;19.26;59.29;99962.09;5086652;28;20048;-76
2022/06/03 03:37:21;;;;;;;5.88;1.27;;;;;;;19.26;59.07;99964.09;5087170;28;20166;-76
2022/06/03 03:40:22;;;;;;;7.72;1.70;;;;;;;19.21;59.13;99959.47;5092337;28;20127;-77
2022/06/03 03:43:26;;;;;;;3.92;1.30;;;;;;;19.25;58.77;99963.28;5080391;28;20106;-76
2022/06/03 03:46:24;;;;;;;4.13;1.25;;;;;;;19.28;59.03;99956.06;5086945;28;20127;-76
2022/06/03 03:49:19;;;;;;;3.42;1.50;;;;;;;19.21;59.15;99955.81;5088323;28;20123;-76
2022/06/03 03:51:58;;;;;;;9.27;1.90;;;;;;;19.15;59.24;99953.25;5082621;28;20134;-75
2022/06/03 03:54:55;;;;;;;3.53;1.00;;;;;;;19.11;59.24;99942.97;5087097;28;20139;-75
2022/06/03 03:57:45;;;;;;;5.75;2.60;;;;;;;19.08;59.44;99953.00;5076293;28;20144;-75
2022/06/03 04:00:15;;;;;;;;;;;;;;;19.04;59.65;99957.72;5103408;28;20075;-74
2022/06/03 04:03:13;;;;;;;7.22;1.77;;;;;;;19.06;59.40;99943.22;5084690;28;20353;-78
2022/06/03 04:05:58;;;;;;;5.93;3.13;;;;;;;19.18;59.06;99963.03;5079601;28;20088;-76
2022/06/03 04:08:52;;;;;;;5.13;1.58;;;;;;;19.12;59.35;99964.44;5085505;28;20067;-76
2022/06/03 04:11:47;;;;;;;4.28;1.33;;;;;;;18.99;59.33;99954.28;5081922;28;20486;-75
2022/06/03 04:14:17;;;;;;;6.05;1.73;;;;;;;19.11;59.28;99974.94;5088849;28;20131;-78
2022/06/03 04:16:53;;;;;;;;;;;;;;;18.98;59.93;99972.44;5085909;28;20048;-77
2022/06/03 04:19:51;;;;;;;5.82;2.00;;;;;;;18.99;59.75;99971.25;5072654;28;19971;-76
2022/06/03 04:22:40;;;;;;;7.80;2.40;;;;;;;18.93;59.92;99973.47;5084429;28;20083;-76
2022/06/03 04:25:21;;;;;;;8.93;2.53;;;;;;;19.02;60.07;99977.03;5078241;28;20093;-77
2022/06/03 04:27:59;;;;;;;4.13;1.30;;;;;;;19.07;60.58;99979.63;5073811;28;20120;-79
2022/06/03 04:30:32;;;;;;;3.13;1.08;;;;;;;19.03;60.45;99977.88;5082868;28;20135;-74
2022/06/03 04:33:17;;;;;;;3.10;1.90;;;;;;;18.94;60.61;99978.00;5082259;28;20101;-74
2022/06/03 04:35:54;;;;;;;10.65;2.30;;;;;;;18.91;60.78;99982.34;5090468;28;20095;-74
2022/06/03 04:38:46;;;;;;;3.75;1.65;;;;;;;18.84;60.73;99967.13;5087126;28;20549;-74
2022/06/03 04:41:34;;;;;;;3.60;1.50;;;;;;;18.71;61.05;99969.06;5075068;28;20151;-74
2022/06/03 04:44:04;;;;;;;6.15;2.08;;;;;;;18.74;61.23;99981.72;5083985;28;20148;-74
2022/06/03 04:46:43;;;;;;;7.03;4.00;;;;;;;18.69;61.33;99969.38;5083384;28;20126;-76
2022/06/03 04:49:34;;;;;;;4.57;3.47;;;;;;;18.67;61.29;99963.28;5075726;28;20067;-76
2022/06/03 04:52:43;;;;;;;8.25;3.25;;;;;;;18.38;61.96;99941.59;5080501;28;20130;-73
2022/06/03 04:55:13;;;;;;;7.22;4.15;;;;;;;18.50;62.24;99974.78;5084173;28;20044;-73
2022/06/03 04:58:27;;;;;;;4.55;3.83;;;;;;;18.38;62.35;99963.41;5087236;28;20143;-73
2022/06/03 05:01:19;;;;;;;7.25;3.95;;;;;;;18.41;62.50;99968.38;5027178;28;20139;-73
2022/06/03 05:04:31;;;;;;;4.75;3.58;;;;;;;17.89;62.54;99881.25;5077715;28;20558;-79
2022/06/03 05:07:07;;;;;;;10.65;3.80;;;;;;;18.43;62.43;99968.84;5081982;28;20054;-73
2022/06/03 05:10:23;;;;;;;7.07;3.45;;;;;;;18.17;63.00;99941.66;5075774;28;20143;-71
2022/06/03 05:13:15;;;;;;;5.63;3.58;;;;;;;18.29;63.19;99966.31;5084222;28;20127;-74
2022/06/03 05:16:08;;;;;;;5.18;3.80;;;;;;;18.21;63.12;99953.91;5085292;28;20413;-73
2022/06/03 05:18:52;;;;;;;8.98;4.43;;;;;;;18.27;63.00;99968.66;5092081;28;20047;-72
2022/06/03 05:21:34;;;;;;;8.32;4.30;;;;;;;18.29;62.94;99973.97;5085750;28;20182;-76
2022/06/03 05:24:32;;;;;;;9.27;4.00;;;;;;;18.61;63.24;99973.16;5089696;28;20072;-72
2022/06/03 05:27:06;;;;;;;3.00;1.40;;;;;;;18.74;62.49;99976.88;5075135;28;20078;-80
2022/06/03 05:29:57;;;;;;;6.57;1.27;;;;;;;18.97;62.16;99974.44;5075491;28;20052;-74
2022/06/03 05:32:27;;;;;;;4.95;2.47;;;;;;;19.22;61.90;99968.81;5074998;28;20083;-74
2022/06/03 05:35:00;;;;;;;7.47;3.05;;;;;;;19.30;61.51;99982.03;5084420;28;20093;-74
2022/06/03 05:37:46;;;;;;;8.27;2.60;;;;;;;19.40;61.35;99982.38;5075435;28;20098;-74
2022/06/03 05:40:33;;;;;;;8.23;4.07;;;;;;;19.75;61.18;99981.06;5076917;28;20080;-76
2022/06/03 05:43:42;;;;;;;6.90;2.55;;;;;;;20.02;60.42;99988.81;5081112;28;20131;-74
2022/06/03 05:46:17;;;;;;;8.48;2.70;;;;;;;20.02;60.38;99994.47;5055771;28;20070;-76
2022/06/03 05:49:03;;;;;;;4.45;2.13;;;;;;;20.20;59.97;99997.03;5075163;28;20044;-74
2022/06/03 05:51:29;;;;;;;5.32;1.98;;;;;;;20.37;59.43;99996.72;5078684;28;20131;-76
2022/06/03 05:54:27;;;;;;;4.18;1.70;;;;;;;20.08;59.23;99973.22;5089747;28;20051;-76
2022/06/03 05:57:14;;;;;;;5.43;1.55;;;;;;;20.23;58.90;99991.47;5074099;28;20134;-77
2022/06/03 05:59:51;;;;;;;4.32;1.40;;;;;;;20.34;58.79;100006.81;5080620;28;20131;-77
2022/06/03 06:02:33;;;;;;;2.92;0.82;;;;;;;20.38;58.47;100003.25;5082709;28;20088;-77
2022/06/03 06:05:22;;;;;;;5.70;1.75;;;;;;;20.44;58.22;100004.63;5083332;28;20486;-77
2022/06/03 06:07:49;;;;;;;1.98;1.23;;;;;;;20.58;58.11;100007.91;5074775;28;20136;-73
2022/06/03 06:10:34;;;;;;;6.68;2.20;;;;;;;20.55;57.54;100000.97;5083083;28;20084;-66
2022/06/03 06:13:10;;;;;;;1.25;0.68;;;;;;;20.52;57.38;99998.84;5085534;28;20139;-67
2022/06/03 06:16:01;;;;;;;2.65;1.20;;;;;;;20.20;57.51;100002.69;5077228;28;20056;-67
2022/06/03 06:18:40;;;;;;;1.02;0.98;;;;;;;19.98;57.84;99998.41;5075468;28;20117;-66
2022/06/03 06:21:54;;;;;;;6.80;1.80;;;;;;;19.83;58.20;100002.81;5073541;28;20757;-66
2022/06/03 06:24:29;;;;;;;3.22;1.17;;;;;;;19.53;58.43;99965.38;5085958;28;20131;-66
2022/06/03 06:27:31;;;;;;;2.20;1.13;;;;;;;19.60;58.62;99996.78;5087439;28;20139;-67
2022/06/03 06:30:05;;;;;;;5.80;1.98;;;;;;;19.59;58.54;99995.13;5062337;28;20052;-67
2022/06/03 06:33:07;;;;;;;2.75;1.73;;;;;;;19.57;58.73;99998.28;5088610;28;20558;-68
2022/06/03 06:36:11;;;;;;;4.07;2.50;;;;;;;19.55;58.82;100000.66;5063557;28;20083;-67
2022/06/03 06:38:59;;;;;;;9.00;1.75;;;;;;;19.50;59.24;100006.56;5082736;28;20087;-68
2022/06/03 06:41:52;;;;;;;5.63;1.75;;;;;;;19.49;58.55;99978.63;5071822;28;20579;-68
2022/06/03 06:44:54;;;;;;;6.40;1.40;;;;;;;19.58;59.14;100002.78;5076247;28;20054;-67
2022/06/03 06:47:35;;;;;;;5.93;1.45;;;;;;;19.39;59.00;99979.91;5054189;28;20083;-66
2022/06/03 06:50:14;;;;;;;8.05;2.17;;;;;;;19.45;59.33;100003.13;5091974;28;20482;-67
2022/06/03 06:53:00;;;;;;;7.88;2.38;;;;;;;19.44;59.28;100010.81;5080193;28;20076;-67
2022/06/03 06:55:37;;;;;;;3.67;1.63;;;;;;;19.36;59.53;100006.09;5075439;28;20127;-67
2022/06/03 06:58:26;;;;;;;2.25;0.90;;;;;;;19.25;59.76;100004.88;5074149;28;20140;-67
2022/06/03 07:00:53;;;;;;;7.18;1.50;;;;;;;19.32;59.68;99999.50;5086346;28;20093;-67
2022/06/03 07:03:43;;;;;;;5.88;1.83;;;;;;;19.84;59.12;99998.78;5081867;28;20094;-68
2022/06/03 07:06:42;;;;;;;4.32;1.63;;;;;;;20.22;58.46;100000.34;5074254;28;20072;-66
2022/06/03 07:09:33;;;;;;;3.20;1.42;;;;;;;20.84;57.67;99998.91;5073593;28;20050;-67
2022/06/03 07:12:15;;;;;;;4.65;1.90;;;;;;;21.52;56.87;99993.03;5073409;28;20052;-67
2022/06/03 07:14:54;;;;;;;5.18;1.45;;;;;;;22.08;55.88;99999.59;5077955;28;20060;-67
2022/06/03 07:20:45;;;;;;;3.85;1.60;;;;;;;21.53;54.91;100008.03;5080987;28;20101;-67
2022/06/03 07:23:17;;;;;;;6.63;1.75;;;;;;;21.89;54.89;99997.56;5092117;28;20051;-67
2022/06/03 07:25:54;;;;;;;7.00;1.83;;;;;;;22.17;54.27;100005.94;5100580;28;20413;-66
2022/06/03 07:28:40;;;;;;;3.78;1.60;;;;;;;22.33;53.95;100009.53;5080172;28;20135;-67
2022/06/03 07:31:36;;;;;;;5.85;1.40;;;;;;;22.14;53.68;99986.72;5081178;28;20076;-67
2022/06/03 07:34:23;;;;;;;6.25;1.33;;;;;;;22.12;53.09;100009.03;5085644;28;20060;-67
2022/06/03 07:37:15;;;;;;;7.85;1.60;;;;;;;22.53;53.49;100009.53;5096627;28;20066;-66
2022/06/03 07:39:51;;;;;;;5.07;1.70;;;;;;;22.90;52.45;100021.25;5092488;28;20055;-67
2022/06/03 07:42:18;;;;;;;4.72;1.45;;;;;;;23.00;52.79;100017.81;5088469;28;20087;-67
2022/06/03 07:45:17;;;;;;;3.92;2.47;;;;;;;22.83;51.75;100010.56;5078536;28;20129;-66
2022/06/03 07:47:45;;;;;;;4.28;1.13;;;;;;;22.57;52.44;100013.28;5086956;28;20592;-67
2022/06/03 07:50:17;;;;;;;5.50;1.90;;;;;;;22.41;51.96;100011.34;5084210;28;20056;-67
2022/06/03 07:53:22;;;;;;;3.33;1.70;;;;;;;22.11;52.29;100010.22;5083314;28;20044;-67
2022/06/03 07:55:55;;;;;;;2.05;0.80;;;;;;;21.74;52.73;99974.47;5076649;28;20048;-67
2022/06/03 07:58:25;;;;;;;6.30;1.88;;;;;;;21.82;53.17;99995.38;5085341;28;20162;-67
2022/06/03 08:00:52;;;;;;;5.18;1.30;;;;;;;21.90;52.95;100016.25;5084332;28;20454;-67
2022/06/03 08:03:22;;;;;;;2.75;1.30;;;;;;;21.91;52.83;100006.50;5083599;28;22148;-66
2022/06/03 08:05:56;;;;;;;;;;;;;;;21.76;52.91;100005.38;5098832;28;20076;-67
2022/06/03 08:11:24;;;;;;;3.28;1.05;;;;;;;22.22;52.29;100017.84;5084058;28;20131;-67
2022/06/03 08:13:54;;;;;;;5.75;1.70;;;;;;;22.73;51.65;100001.81;5082958;28;20136;-68
2022/06/03 08:16:42;;;;;;;1.55;0.85;;;;;;;23.01;50.97;100001.56;5097155;28;20147;-65
2022/06/03 08:19:26;;;;;;;7.40;1.75;;;;;;;23.25;51.16;100009.75;5081600;28;20084;-66
2022/06/03 08:22:00;;;;;;;5.13;1.40;;;;;;;23.68;50.69;100007.66;5081660;28;20135;-67
2022/06/03 08:24:44;;;;;;;3.58;1.27;;;;;;;24.01;50.13;100011.81;5087795;28;20055;-66
2022/06/03 08:27:24;;;;;;;2.35;1.05;;;;;;;24.02;49.34;100002.06;5097873;28;20210;-66
2022/06/03 08:30:01;;;;;;;3.70;1.20;;;;;;;24.16;49.19;99999.41;5092490;28;20442;-66
2022/06/03 08:32:33;;;;;;;3.55;1.15;;;;;;;24.08;49.22;99992.78;5087876;28;20052;-66
2022/06/03 08:35:13;;;;;;;5.03;1.80;;;;;;;24.15;48.72;100012.03;5077116;28;20088;-67
2022/06/03 08:37:49;;;;;;;2.47;1.02;;;;;;;23.99;48.81;100006.50;5089777;28;20091;-67
2022/06/03 08:40:44;;;;;;;3.33;1.67;;;;;;;23.88;48.18;100008.38;5082639;28;20096;-67
2022/06/03 08:43:32;;;;;;;3.95;1.65;;;;;;;24.07;48.18;100016.81;5081543;28;20131;-68
2022/06/03 08:46:35;;;;;;;2.30;1.27;;;;;;;24.12;48.39;100009.94;5088251;28;20080;-68
2022/06/03 08:49:10;;;;;;;9.95;1.80;;;;;;;24.30;47.91;100010.19;5059013;28;20825;-67
2022/06/03 08:51:45;;;;;;;6.85;1.80;;;;;;;24.18;47.20;100008.41;5082070;28;20086;-68
2022/06/03 08:54:30;;;;;;;1.23;0.77;;;;;;;23.99;46.38;100028.50;5098513;28;20044;-67
2022/06/03 08:57:08;;;;;;;5.63;1.65;;;;;;;23.45;47.37;100006.81;5094793;28;20155;-67
2022/06/03 08:59:58;;;;;;;5.57;1.67;;;;;;;23.67;47.48;100023.09;5094741;28;20124;-69
2022/06/03 09:02:33;;;;;;;7.50;1.48;;;;;;;23.50;47.20;100006.50;5077319;28;20581;-67
2022/06/03 09:05:07;;;;;;;4.15;1.50;;;;;;;23.12;47.60;100008.28;5093611;28;20086;-67
2022/06/03 09:07:48;;;;;;;1.73;1.13;;;;;;;23.02;47.44;100004.03;5087617;28;20449;-67
2022/06/03 09:10:24;;;;;;;2.28;1.17;;;;;;;23.08;48.31;100016.78;5086835;28;20079;-67
2022/06/03 09:13:20;;;;;;;3.70;1.20;;;;;;;23.22;47.57;100015.38;5091670;28;20071;-66
2022/06/03 09:15:49;;;;;;;2.70;1.00;;;;;;;22.86;47.94;99981.31;5082778;28;20135;-67
2022/06/03 09:18:21;;;;;;;1.17;0.80;;;;;;;23.02;47.60;100026.00;5103263;28;20048;-67
2022/06/03 09:21:04;;;;;;;2.10;1.00;;;;;;;22.87;47.96;100017.16;5104811;28;20121;-67
2022/06/03 09:23:57;;;;;;;3.92;1.05;;;;;;;23.10;47.57;100025.75;5082298;28;20062;-67
2022/06/03 09:26:30;;;;;;;4.15;1.10;;;;;;;23.42;47.27;100000.69;5098847;28;20857;-68
2022/06/03 09:28:59;;;;;;;3.83;1.25;;;;;;;23.94;46.53;100006.03;5091509;28;20123;-66
2022/06/03 09:31:27;;;;;;;1.90;1.08;;;;;;;24.28;45.53;100022.00;5081912;28;20083;-67
2022/06/03 09:33:56;;;;;;;3.78;1.23;;;;;;;24.33;43.92;100021.66;5090831;28;20052;-67
2022/06/03 09:36:24;;;;;;;3.75;1.23;;;;;;;24.63;44.17;100003.72;5105709;27;20080;-67
2022/06/03 09:39:00;;;;;;;2.22;1.05;;;;;;;24.55;43.23;100011.38;5089936;28;20050;-67
2022/06/03 09:41:33;;;;;;;2.00;1.20;;;;;;;24.83;42.65;100015.78;5082645;28;20130;-67
2022/06/03 09:44:03;;;;;;;2.17;1.10;;;;;;;25.08;42.42;100027.47;5080478;28;20055;-66
2022/06/03 09:46:33;;;;;;;1.08;0.70;;;;;;;25.04;41.57;100021.72;5093863;28;20296;-67
2022/06/03 09:49:02;;;;;;;0.40;0.40;;;;;;;24.88;41.45;100008.91;5105015;28;20048;-66
2022/06/03 09:54:39;;;;;;;2.72;1.63;;;;;;;25.33;42.06;100038.38;5103632;28;20131;-66
2022/06/03 09:57:14;;;;;;;1.65;1.15;;;;;;;25.23;41.68;100006.44;5093267;28;20135;-66
2022/06/03 09:59:52;;;;;;;2.95;1.27;;;;;;;25.17;41.43;100030.88;5088575;28;20058;-68
2022/06/03 10:02:19;;;;;;;2.85;1.27;;;;;;;24.81;41.56;100030.44;5090118;28;20044;-67
2022/06/03 10:04:46;;;;;;;3.60;0.80;;;;;;;24.66;42.21;100040.06;5090390;28;20048;-67
2022/06/03 10:07:13;;;;;;;4.63;1.20;;;;;;;24.75;42.21;100032.03;5108861;28;20142;-67
2022/06/03 10:12:52;;;;;;;4.28;1.98;;;;;;;25.29;42.20;100039.16;5084687;28;20135;-67
2022/06/03 10:15:43;;;;;;;3.25;1.00;;;;;;;25.66;41.96;100035.41;5082423;28;20052;-67
2022/06/03 10:18:29;;;;;;;6.50;1.83;;;;;;;25.75;41.45;100027.31;5085755;28;20067;-66
2022/06/03 10:21:05;;;;;;;4.78;1.40;;;;;;;26.09;40.73;100032.91;5086123;28;20071;-66
2022/06/03 10:23:36;;;;;;;1.50;0.90;;;;;;;25.85;40.32;100025.78;5082004;28;20101;-67
2022/06/03 10:26:30;;;;;;;2.95;1.00;;;;;;;25.68;40.64;100030.13;5077756;28;20051;-66
2022/06/03 10:29:04;;;;;;;4.47;1.20;;;;;;;25.74;40.22;100022.81;5085029;28;20048;-67
2022/06/03 10:31:34;;;;;;;5.35;1.70;;;;;;;25.85;39.37;100019.25;5081125;28;20152;-67
2022/06/03 10:34:11;;;;;;;3.95;1.50;;;;;;;25.81;40.41;99989.78;5075732;28;20079;-67
2022/06/03 10:36:41;;;;;;;2.85;1.17;;;;;;;26.21;39.90;100020.28;5080386;28;20093;-68
2022/06/03 10:39:13;;;;;;;4.45;1.55;;;;;;;26.51;39.90;100025.81;5084168;28;20125;-67
2022/06/03 10:41:51;;;;;;;3.63;1.30;;;;;;;26.35;39.74;99993.78;5085328;28;20134;-68
2022/06/03 10:44:21;;;;;;;2.57;1.00;;;;;;;26.62;40.05;100025.84;5077618;28;20134;-68
2022/06/03 10:46:54;;;;;;;3.55;1.35;;;;;;;26.58;39.56;100028.69;5091337;28;20296;-68
2022/06/03 10:49:24;;;;;;;3.13;0.90;;;;;;;26.26;39.74;100014.22;5083644;28;20049;-67
2022/06/03 11:02:59;;;;;;;2.83;1.40;;;;;;;26.20;39.90;100025.19;5087827;28;20148;-67
2022/06/03 11:05:34;;;;;;;5.88;1.85;;;;;;;25.97;40.16;100016.06;5088734;28;20052;-68
2022/06/03 11:08:05;;;;;;;2.47;1.20;;;;;;;26.28;40.30;100010.94;5082252;28;20107;-67
2022/06/03 11:10:45;;;;;;;1.80;1.02;;;;;;;26.71;39.99;100009.13;5081149;28;20075;-67
2022/06/03 11:13:24;;;;;;;1.08;0.95;;;;;;;26.31;38.83;100013.00;5079215;28;20048;-67
2022/06/03 11:15:51;;;;;;;4.18;1.77;;;;;;;25.77;39.14;100004.84;5090088;28;20084;-67
2022/06/03 11:18:29;;;;;;;3.25;1.17;;;;;;;25.85;39.00;99996.38;5084705;28;20049;-68
2022/06/03 11:21:15;;;;;;;1.45;1.10;;;;;;;26.14;38.26;100006.75;5091096;28;20562;-68
2022/06/03 11:23:42;;;;;;;3.17;1.15;;;;;;;26.26;38.06;99988.44;5080866;28;20387;-67
2022/06/03 11:26:10;;;;;;;1.38;1.02;;;;;;;26.41;38.14;100012.22;5074134;28;20174;-67
2022/06/03 11:28:48;;;;;;;3.53;1.80;;;;;;;26.54;37.97;100010.69;5072852;28;20044;-66
2022/06/03 11:31:24;;;;;;;0.98;0.75;;;;;;;26.44;37.37;100017.16;5072534;28;20498;-67
2022/06/03 11:34:01;;;;;;;1.40;0.90;;;;;;;25.87;37.67;100003.31;5075938;28;20067;-66
2022/06/03 11:36:35;;;;;;;2.13;1.30;;;;;;;25.52;38.00;100013.22;5078499;28;20099;-68
2022/06/03 11:39:21;;;;;;;3.35;1.20;;;;;;;25.61;38.60;100009.25;5073962;28;20131;-68
2022/06/03 11:41:55;;;;;;;3.58;1.55;;;;;;;25.86;38.93;100009.44;5073388;28;20087;-67
2022/06/03 11:44:51;;;;;;;2.38;1.60;;;;;;;26.24;38.43;100020.31;5076462;28;20058;-67
2022/06/03 11:47:49;;;;;;;2.45;1.23;;;;;;;26.27;37.88;100004.38;5078254;28;20054;-67
2022/06/03 11:50:22;;;;;;;4.10;1.60;;;;;;;26.63;37.46;99975.94;5083873;28;20079;-68
2022/06/03 11:52:52;;;;;;;3.10;1.30;;;;;;;27.13;36.89;99996.97;5104378;28;20065;-68
2022/06/03 11:55:20;;;;;;;;;;;;;;;27.05;36.98;100006.75;5102101;28;20134;-67
2022/06/03 11:58:05;;;;;;;1.77;1.38;;;;;;;27.69;36.44;100005.19;5100826;28;19920;-67
2022/06/03 12:00:40;;;;;;;6.35;1.58;;;;;;;27.72;35.86;100010.09;5088115;28;20135;-67
2022/06/03 12:03:15;;;;;;;5.18;1.30;;;;;;;27.90;35.14;99996.63;5094872;28;20130;-67
2022/06/03 12:05:50;;;;;;;1.52;0.90;;;;;;;28.55;34.71;100000.97;5094529;28;20055;-67
2022/06/03 12:08:46;;;;;;;3.90;1.70;;;;;;;28.91;33.17;100003.66;5085160;28;20134;-68
2022/06/03 12:14:24;;;;;;;5.63;2.13;;;;;;;27.66;34.87;100003.97;5098117;28;20084;-67
2022/06/03 12:16:58;;;;;;;3.08;1.15;;;;;;;27.53;35.13;99992.09;5103693;28;20094;-67
2022/06/03 12:19:47;;;;;;;2.75;1.23;;;;;;;26.89;35.39;99963.31;5109564;28;20052;-67
2022/06/03 12:22:15;;;;;;;4.38;1.58;;;;;;;26.82;35.86;100006.28;5094059;28;20341;-67
2022/06/03 12:24:58;;;;;;;3.42;1.70;;;;;;;27.63;35.31;99999.06;5110564;28;20059;-67
2022/06/03 12:27:40;;;;;;;5.57;1.80;;;;;;;30.14;32.97;99979.25;5099013;28;20138;-67
2022/06/03 12:30:18;;;;;;;4.72;2.00;;;;;;;29.61;34.06;100006.50;5100102;28;20155;-67
2022/06/03 12:32:58;;;;;;;3.13;1.50;;;;;;;29.02;35.45;99983.50;5088368;28;20080;-66
2022/06/03 12:35:45;;;;;;;4.40;2.13;;;;;;;28.00;36.73;100009.28;5101321;28;20140;-66
2022/06/03 12:38:21;;;;;;;5.93;1.77;;;;;;;27.29;37.73;100018.72;5088534;28;20141;-67
2022/06/03 12:40:54;;;;;;;3.88;1.40;;;;;;;27.04;38.30;100028.03;5099520;28;20123;-66
2022/06/03 12:43:46;;;;;;;5.25;1.38;;;;;;;26.71;39.17;100034.91;5109654;28;20743;-67
2022/06/03 12:46:43;;;;;;;5.28;1.58;;;;;;;26.36;39.51;100044.09;5108486;28;20097;-67
2022/06/03 12:49:30;;;;;;;6.28;2.17;;;;;;;27.19;38.92;100039.56;5099055;28;20088;-68
2022/06/03 12:52:01;;;;;;;9.70;1.85;;;;;;;27.35;38.50;100029.38;5074190;28;20123;-68
2022/06/03 12:54:29;;;;;;;4.88;2.15;;;;;;;26.65;39.52;100057.38;5073987;28;20362;-67
2022/06/03 12:57:08;;;;;;;4.07;1.58;;;;;;;25.96;41.37;100060.19;5083925;28;20052;-67
2022/06/03 12:59:55;;;;;;;4.28;2.00;;;;;;;25.36;43.25;100066.16;5085533;28;20130;-67
2022/06/03 13:02:32;;;;;;;4.18;1.48;;;;;;;25.14;43.23;100050.84;5091717;28;20097;-67
2022/06/03 13:05:24;;;;;;;5.47;1.48;;;;;;;25.09;44.09;100060.53;5078514;28;20135;-67
2022/06/03 13:08:01;;;;;;;4.88;1.77;;;;;;;25.02;44.50;100040.47;5091781;28;20140;-68
2022/06/03 13:10:31;;;;;;;8.23;2.30;;;;;;;24.88;45.18;100058.25;5084055;28;20072;-65